Time,TemperatureF,DewpointF,PressureIn,WindDirection,WindDirectionDegrees,WindSpeedMPH,WindSpeedGustMPH,Humidity,HourlyPrecipIn,Conditions,Clouds,dailyrainin,SolarRadiationWatts/m^2,SoftwareType,DateUTC
2013-03-26 00:00:00,34.0,26.0,-100.00,NNW,337,7.0,-999.0,71,-99.99,,,-99.99,0.000000,,2013-03-26 04:00:00,
2013-03-26 00:43:00,34.0,26.0,-100.00,NNW,337,7.0,-999.0,71,-99.99,,,-99.99,0.000000,,2013-03-26 04:43:00,
2013-03-26 00:53:00,34.0,26.0,-100.00,NNW,337,7.0,-999.0,71,-99.99,,,-99.99,0.000000,,2013-03-26 04:53:00,
2013-03-26 02:00:00,33.0,25.0,-100.00,NNW,337,6.0,-999.0,71,-99.99,,,-99.99,0.000000,,2013-03-26 06:00:00,
2013-03-26 02:43:00,33.0,25.0,-100.00,NNW,337,6.0,-999.0,71,-99.99,,,-99.99,0.000000,,2013-03-26 06:43:00,
2013-03-26 02:52:00,33.0,25.0,-100.00,NNW,337,6.0,-999.0,71,-99.99,,,-99.99,0.000000,,2013-03-26 06:52:00,
2013-03-26 03:00:00,33.0,26.0,-100.00,NNW,337,5.0,-999.0,75,-99.99,,,-99.99,0.000000,,2013-03-26 07:00:00,
2013-03-26 03:43:00,33.0,26.0,-100.00,NNW,337,5.0,-999.0,75,-99.99,,,-99.99,0.000000,,2013-03-26 07:43:00,
2013-03-26 03:53:00,33.0,26.0,-100.00,NNW,337,5.0,-999.0,75,-99.99,,,-99.99,0.000000,,2013-03-26 07:53:00,
2013-03-26 05:00:00,32.0,28.0,-100.00,NW,315,6.0,-999.0,82,-99.99,,,-99.99,0.000000,,2013-03-26 09:00:00,
2013-03-26 05:43:00,32.0,28.0,-100.00,NW,315,6.0,-999.0,82,-99.99,,,-99.99,0.000000,,2013-03-26 09:43:00,
2013-03-26 05:52:00,32.0,28.0,-100.00,NW,315,6.0,-999.0,82,-99.99,,,-99.99,0.000000,,2013-03-26 09:52:00,
2013-03-26 06:00:00,32.0,27.0,-100.00,NW,315,6.0,-999.0,79,-99.99,,,-99.99,0.000000,,2013-03-26 10:00:00,
2013-03-26 06:43:00,32.0,27.0,-100.00,NW,315,6.0,-999.0,79,-99.99,,,-99.99,0.000000,,2013-03-26 10:43:00,
2013-03-26 06:53:00,32.0,27.0,-100.00,NW,315,6.0,-999.0,79,-99.99,,,-99.99,0.000000,,2013-03-26 10:53:00,
2013-03-26 07:00:00,32.0,27.0,-100.00,NW,315,6.0,-999.0,80,-99.99,,,-99.99,0.000000,,2013-03-26 11:00:00,
2013-03-26 07:43:00,32.0,27.0,-100.00,NW,315,6.0,-999.0,80,-99.99,,,-99.99,0.000000,,2013-03-26 11:43:00,
2013-03-26 07:52:00,32.0,27.0,-100.00,NW,315,6.0,-999.0,80,-99.99,,,-99.99,0.000000,,2013-03-26 11:52:00,
2013-03-26 08:00:00,32.0,28.0,-100.00,NW,315,5.0,-999.0,82,-99.99,,,-99.99,2.320000,,2013-03-26 12:00:00,
2013-03-26 08:43:00,32.0,28.0,-100.00,NW,315,5.0,-999.0,82,-99.99,,,-99.99,2.320000,,2013-03-26 12:43:00,
2013-03-26 08:52:00,32.0,28.0,-100.00,NW,315,5.0,-999.0,82,-99.99,,,-99.99,2.320000,,2013-03-26 12:52:00,
2013-03-26 09:00:00,32.0,28.0,-100.00,NW,315,5.0,-999.0,85,-99.99,,,-99.99,24.360001,,2013-03-26 13:00:00,
2013-03-26 09:42:00,32.0,28.0,-100.00,NW,315,5.0,-999.0,85,-99.99,,,-99.99,24.360001,,2013-03-26 13:42:00,
2013-03-26 09:52:00,32.0,28.0,-100.00,NW,315,5.0,-999.0,85,-99.99,,,-99.99,24.360001,,2013-03-26 13:52:00,
2013-03-26 10:00:00,34.0,27.0,-100.00,NW,315,7.0,-999.0,78,-99.99,,,-99.99,105.559998,,2013-03-26 14:00:00,
2013-03-26 10:42:00,34.0,27.0,-100.00,NW,315,7.0,-999.0,78,-99.99,,,-99.99,105.559998,,2013-03-26 14:42:00,
2013-03-26 10:53:00,34.0,27.0,-100.00,NW,315,7.0,-999.0,78,-99.99,,,-99.99,105.559998,,2013-03-26 14:53:00,
2013-03-26 11:00:00,35.0,26.0,-100.00,NNW,337,9.0,-999.0,70,-99.99,,,-99.99,286.519989,,2013-03-26 15:00:00,
2013-03-26 11:43:00,35.0,26.0,-100.00,NNW,337,9.0,-999.0,70,-99.99,,,-99.99,286.519989,,2013-03-26 15:43:00,
2013-03-26 11:53:00,35.0,26.0,-100.00,NNW,337,9.0,-999.0,70,-99.99,,,-99.99,286.519989,,2013-03-26 15:53:00,
2013-03-26 12:00:00,36.0,26.0,-100.00,NNW,337,10.0,-999.0,65,-99.99,,,-99.99,438.480011,,2013-03-26 16:00:00,
2013-03-26 12:42:00,36.0,26.0,-100.00,NNW,337,10.0,-999.0,65,-99.99,,,-99.99,438.480011,,2013-03-26 16:42:00,
2013-03-26 12:54:00,36.0,26.0,-100.00,NNW,337,10.0,-999.0,65,-99.99,,,-99.99,438.480011,,2013-03-26 16:54:00,
2013-03-26 13:00:00,36.0,25.0,-100.00,NNW,337,10.0,-999.0,65,-99.99,,,-99.99,267.959991,,2013-03-26 17:00:00,
2013-03-26 13:42:00,36.0,25.0,-100.00,NNW,337,10.0,-999.0,65,-99.99,,,-99.99,267.959991,,2013-03-26 17:42:00,
2013-03-26 13:53:00,36.0,25.0,-100.00,NNW,337,10.0,-999.0,65,-99.99,,,-99.99,267.959991,,2013-03-26 17:53:00,
2013-03-26 15:00:00,35.0,26.0,-100.00,NNW,337,10.0,-999.0,70,-99.99,,,-99.99,179.800003,,2013-03-26 19:00:00,
2013-03-26 15:42:00,35.0,26.0,-100.00,NNW,337,10.0,-999.0,70,-99.99,,,-99.99,179.800003,,2013-03-26 19:42:00,
2013-03-26 15:53:00,35.0,26.0,-100.00,NNW,337,10.0,-999.0,70,-99.99,,,-99.99,179.800003,,2013-03-26 19:53:00,
2013-03-26 16:00:00,34.0,27.0,-100.00,North,0,9.0,-999.0,73,-99.99,,,-99.99,99.760002,,2013-03-26 20:00:00,
2013-03-26 16:32:00,34.0,27.0,-100.00,North,0,9.0,-999.0,73,-99.99,,,-99.99,99.760002,,2013-03-26 20:32:00,
2013-03-26 16:43:00,34.0,27.0,-100.00,North,0,9.0,-999.0,73,-99.99,,,-99.99,99.760002,,2013-03-26 20:43:00,
2013-03-26 16:52:00,34.0,27.0,-100.00,North,0,9.0,-999.0,73,-99.99,,,-99.99,99.760002,,2013-03-26 20:52:00,
2013-03-26 17:00:00,34.0,27.0,-100.00,North,0,9.0,-999.0,75,-99.99,,,-99.99,87.000000,,2013-03-26 21:00:00,
2013-03-26 17:43:00,34.0,27.0,-100.00,North,0,9.0,-999.0,75,-99.99,,,-99.99,87.000000,,2013-03-26 21:43:00,
2013-03-26 17:52:00,34.0,27.0,-100.00,North,0,9.0,-999.0,75,-99.99,,,-99.99,87.000000,,2013-03-26 21:52:00,
2013-03-26 18:00:00,34.0,27.0,-100.00,NNW,337,9.0,-999.0,73,-99.99,,,-99.99,73.080002,,2013-03-26 22:00:00,
2013-03-26 18:42:00,34.0,27.0,-100.00,NNW,337,9.0,-999.0,73,-99.99,,,-99.99,73.080002,,2013-03-26 22:42:00,
2013-03-26 18:52:00,34.0,27.0,-100.00,NNW,337,9.0,-999.0,73,-99.99,,,-99.99,73.080002,,2013-03-26 22:52:00,
2013-03-26 19:00:00,34.0,27.0,-100.00,NNW,337,8.0,-999.0,73,-99.99,,,-99.99,46.400002,,2013-03-26 23:00:00,
2013-03-26 19:43:00,34.0,27.0,-100.00,NNW,337,8.0,-999.0,73,-99.99,,,-99.99,46.400002,,2013-03-26 23:43:00,
2013-03-26 19:53:00,34.0,27.0,-100.00,NNW,337,8.0,-999.0,73,-99.99,,,-99.99,46.400002,,2013-03-26 23:53:00,
2013-03-26 21:00:00,34.0,27.0,-100.00,NW,315,7.0,-999.0,76,-99.99,,,-99.99,0.000000,,2013-03-27 01:00:00,
2013-03-26 21:43:00,34.0,27.0,-100.00,NW,315,7.0,-999.0,76,-99.99,,,-99.99,0.000000,,2013-03-27 01:43:00,
2013-03-26 21:53:00,34.0,27.0,-100.00,NW,315,7.0,-999.0,76,-99.99,,,-99.99,0.000000,,2013-03-27 01:53:00,
2013-03-26 22:00:00,33.0,27.0,-100.00,NW,315,4.0,-999.0,77,-99.99,,,-99.99,0.000000,,2013-03-27 02:00:00,
2013-03-26 22:42:00,33.0,27.0,-100.00,NW,315,4.0,-999.0,77,-99.99,,,-99.99,0.000000,,2013-03-27 02:42:00,
2013-03-26 22:53:00,33.0,27.0,-100.00,NW,315,4.0,-999.0,77,-99.99,,,-99.99,0.000000,,2013-03-27 02:53:00,
2013-03-26 23:00:00,34.0,27.0,-100.00,NNW,337,5.0,-999.0,76,-99.99,,,-99.99,0.000000,,2013-03-27 03:00:00,
2013-03-26 23:43:00,34.0,27.0,-100.00,NNW,337,5.0,-999.0,76,-99.99,,,-99.99,0.000000,,2013-03-27 03:43:00,
2013-03-26 23:53:00,34.0,27.0,-100.00,NNW,337,5.0,-999.0,76,-99.99,,,-99.99,0.000000,,2013-03-27 03:53:00,